Avon, MS

4:26 PM CST on February 22, 2017 (GMT -0600)
Q102 Downtown Greenville | | Change Station
Active Advisory: Dense Fog Advisory

Elev 141 ft 33.41 °N, 91.06 °W | Updated 39 seconds ago

Partly Cloudy
Partly Cloudy
68.5 °F
Feels Like 68.5 °F
N
3.4
Wind Variable Wind from SW
Gusts 4.0 mph

Today
High -- | Low -- °F
--% Chance of Precip.
Yesterday
High -- | Low -- °F
Precip. -- in
Pressure 29.81 in
Visibility 10.0 miles
Clouds Scattered Clouds 2300 ft
Dew Point 59 °F
Humidity 72%
Rainfall 0.17 in
Snow Depth Not available.
6:40 AM 5:55 PM
Waning Crescent, 14% visible
SPECI KGLH 222212Z 21004KT 10SM SCT023 19/13 A2981 RMK AO2 T01940133
Pressure 29.81 in
Visibility 10.0 miles
Clouds Scattered Clouds 2300 ft
Dew Point 59 °F
Humidity 72%
Rainfall 0.17 in
Snow Depth Not available.
6:40 AM 5:55 PM
Waning Crescent, 14% visible
SPECI KGLH 222212Z 21004KT 10SM SCT023 19/13 A2981 RMK AO2 T01940133

Get Your Daily Forecast Email!

Thanks for signing up!

Be on the lookout for a verification email in your inbox.

You'll start receiving the daily forecast at 8 AM.

×

10-Day Weather Forecast

Almanac

Astronomy

Feb. 22, 2017 Rise Set
Actual Time
Civil Twilight
Nautical Twilight
Astronomical Twilight
Moon
Length of Visible Light
Length of Day
Tomorrow will be .
, % of the Moon is Illuminated

Today's Extremes

State Highs State Lows

Community

WunderPhotos

Upload Photos

1,962,540 photos uploaded!

WunderBlog® & News

Nearby

Air Quality

  Air Quality AQ Index Pollutant
Not available.

Snow Depth

Station Depth Elevation

Earthquake Activity

City Distance Mag. Time & Date
Minimum magnitude displayed is 2.5.

Coastal Water Temperatures

Place Temperature

Stations

Nearby Weather Stations

Station Location Temp. Windchill Dew Point Humidity Wind Precip. Elev Updated Type
                   

Watches & Warnings

Dense Fog Advisory
Issued: 2:28 PM CST Feb. 22, 2017 – National Weather Service

... Dense fog advisory in effect from midnight tonight to 10 am
CST Thursday...

The National Weather Service in Jackson has issued a dense fog
advisory, which is in effect from midnight tonight to 10 am CST
Thursday.

* Visibility... areas of dense fog will reduce visibility at times
at or below one quarter mile.

* Impacts... poor visibility will result in hazardous travel
conditions.

Precautionary/preparedness actions...

A dense fog advisory means visibilities will frequently be
reduced to less than one quarter mile. If driving, slow down, use
your headlights, and leave plenty of distance ahead of you.



23